EGWC

DCAE Cosford Airport

Cosford, United Kingdom
METAR EGWC 201350Z 33010KT 9999 -DZ FEW015 SCT050 20/13 Q1014 BLU
Observed Flight Rules
Jul-20 @ 13:50 UTC (55 minutes ago) Visual Flight Rules
Wind Visibility Clouds Conditions
330° at 10 knots 10,000+ meters
  • Few at 1,500' AGL
  • Scattered at 5,000' AGL
  • Light Drizzle
Temperatures Readings
Current 20°C / 68°F
Dewpoint 13°C / 55°F
Humidity 64%
Altimeter 29.94" Hg
Pressure 1014 hPa
Elevation 83
METAR EGWC 201350Z 33010KT 9999 -DZ FEW015 SCT050 20/13 Q1014 BLU
Observed Flight Rules
Jul-20 @ 13:50 UTC
(55 minutes ago)
VFR
Wind Visibility
330° at 10 knots 10,000+ meters
Clouds
  • Few at 1,500' AGL
  • Scattered at 5,000' AGL
Conditions
  • Light Drizzle
Temperature Dewpoint
20°C / 68°F 13°C / 55°F
Humidity Altimeter Pressure
64% 29.94" Hg 1014 hPa